createdAt,value
2023-03-20T00:00:22.607Z,8.90
2023-03-20T00:02:49.159Z,8.60
2023-03-20T00:05:15.771Z,8.90
2023-03-20T00:07:42.369Z,8.60
2023-03-20T00:10:08.929Z,8.80
2023-03-20T00:12:35.494Z,8.80
2023-03-20T00:15:02.091Z,8.50
2023-03-20T00:17:28.631Z,8.70
2023-03-20T00:19:55.205Z,9.00
2023-03-20T00:22:21.878Z,9.10
2023-03-20T00:24:48.448Z,9.20
2023-03-20T00:27:15.028Z,8.90
2023-03-20T00:29:41.570Z,8.90
2023-03-20T00:32:08.154Z,8.90
2023-03-20T00:34:34.703Z,9.00
2023-03-20T00:37:01.431Z,8.80
2023-03-20T00:39:28.024Z,8.80
2023-03-20T00:41:54.612Z,8.80
2023-03-20T00:44:21.185Z,9.00
2023-03-20T00:46:47.832Z,9.10
2023-03-20T00:49:14.634Z,8.90
2023-03-20T00:51:41.238Z,9.00
2023-03-20T00:54:07.771Z,8.90
2023-03-20T00:56:34.361Z,9.10
2023-03-20T00:59:00.945Z,9.20
2023-03-20T01:01:27.572Z,9.30
2023-03-20T01:03:54.143Z,9.10
2023-03-20T01:06:20.670Z,9.10
2023-03-20T01:08:47.329Z,9.00
2023-03-20T01:11:13.929Z,8.90
2023-03-20T01:13:40.524Z,8.60
2023-03-20T01:16:07.105Z,8.70
2023-03-20T01:18:33.740Z,8.60
2023-03-20T01:21:00.335Z,8.70
2023-03-20T01:23:26.912Z,8.80
2023-03-20T01:25:53.741Z,8.70
2023-03-20T01:28:20.343Z,8.80
2023-03-20T01:30:46.890Z,8.80
2023-03-20T01:33:13.625Z,8.60
2023-03-20T01:35:40.255Z,8.70
2023-03-20T01:38:06.799Z,8.70
2023-03-20T01:40:33.386Z,8.70
2023-03-20T01:42:59.938Z,8.70
2023-03-20T01:45:26.525Z,8.80
2023-03-20T01:47:53.058Z,8.70
2023-03-20T01:50:19.644Z,8.80
2023-03-20T01:52:46.206Z,8.70
2023-03-20T01:55:12.789Z,8.50
2023-03-20T01:57:39.328Z,8.60
2023-03-20T02:00:05.900Z,8.60
2023-03-20T02:02:32.498Z,8.60
2023-03-20T02:04:59.094Z,8.60
2023-03-20T02:07:25.685Z,8.60
2023-03-20T02:09:52.295Z,8.70
2023-03-20T02:12:18.826Z,8.60
2023-03-20T02:14:45.389Z,8.40
2023-03-20T02:17:11.936Z,8.50
2023-03-20T02:19:38.796Z,8.70
2023-03-20T02:22:05.413Z,8.60
2023-03-20T02:24:31.955Z,8.60
2023-03-20T02:26:58.526Z,8.60
2023-03-20T02:29:25.124Z,8.70
2023-03-20T02:31:51.746Z,8.70
2023-03-20T02:34:18.326Z,8.90
2023-03-20T02:36:44.863Z,8.90
2023-03-20T02:39:11.438Z,8.90
2023-03-20T02:41:38.047Z,8.70
2023-03-20T02:44:04.670Z,8.30
2023-03-20T02:46:31.244Z,8.20
2023-03-20T02:48:57.877Z,8.50
2023-03-20T02:51:24.461Z,8.70
2023-03-20T02:53:51.038Z,8.80
2023-03-20T02:56:17.633Z,8.80
2023-03-20T02:58:44.254Z,8.50
2023-03-20T03:01:10.869Z,8.60
2023-03-20T03:03:37.786Z,8.80
2023-03-20T03:06:04.345Z,8.90
2023-03-20T03:08:30.931Z,8.90
2023-03-20T03:10:57.493Z,9.00
2023-03-20T03:13:24.090Z,9.00
2023-03-20T03:15:50.708Z,9.00
2023-03-20T03:18:17.303Z,8.90
2023-03-20T03:20:44.074Z,8.80
2023-03-20T03:23:10.623Z,8.50
2023-03-20T03:25:37.403Z,8.40
2023-03-20T03:28:04.131Z,8.50
2023-03-20T03:30:30.695Z,8.50
2023-03-20T03:32:57.314Z,8.50
2023-03-20T03:35:23.921Z,8.60
2023-03-20T03:37:50.500Z,8.70
2023-03-20T03:40:17.048Z,8.40
2023-03-20T03:42:43.687Z,8.30
2023-03-20T03:45:10.286Z,8.60
2023-03-20T03:47:36.887Z,8.80
2023-03-20T03:50:03.491Z,9.00
2023-03-20T03:52:30.046Z,8.80
2023-03-20T03:54:56.625Z,8.70
2023-03-20T03:57:23.219Z,8.50
2023-03-20T03:59:49.780Z,8.60
2023-03-20T04:02:16.327Z,8.60
2023-03-20T04:04:43.035Z,8.40
2023-03-20T04:07:09.656Z,8.50
2023-03-20T04:09:36.249Z,8.40
2023-03-20T04:12:02.805Z,8.70
2023-03-20T04:14:29.385Z,8.70
2023-03-20T04:16:55.983Z,8.90
2023-03-20T04:19:22.722Z,9.00
2023-03-20T04:21:49.298Z,9.10
2023-03-20T04:24:15.833Z,8.60
2023-03-20T04:26:42.406Z,8.70
2023-03-20T04:29:09.021Z,8.80
2023-03-20T04:31:35.624Z,9.00
2023-03-20T04:34:02.212Z,9.20
2023-03-20T04:36:28.832Z,9.20
2023-03-20T04:38:57.576Z,9.30
2023-03-20T04:41:24.463Z,8.90
2023-03-20T04:43:51.023Z,8.70
2023-03-20T04:46:17.614Z,8.80
2023-03-20T04:48:44.209Z,9.00
2023-03-20T04:51:10.784Z,9.10
2023-03-20T04:53:37.364Z,9.30
2023-03-20T04:56:03.948Z,9.40
2023-03-20T04:58:30.523Z,9.40
2023-03-20T05:00:57.339Z,9.40
2023-03-20T05:03:24.336Z,9.50
2023-03-20T05:05:50.938Z,9.50
2023-03-20T05:08:17.470Z,9.30
2023-03-20T05:10:44.027Z,9.40
2023-03-20T05:13:10.578Z,9.40
2023-03-20T05:15:37.314Z,9.50
2023-03-20T05:18:03.943Z,9.60
2023-03-20T05:20:30.488Z,9.60
2023-03-20T05:22:57.057Z,9.40
2023-03-20T05:25:23.626Z,9.00
2023-03-20T05:27:50.211Z,9.00
2023-03-20T05:30:16.779Z,9.20
2023-03-20T05:32:43.371Z,9.30
2023-03-20T05:35:09.911Z,9.40
2023-03-20T05:37:36.458Z,9.50
2023-03-20T05:40:03.028Z,9.00
2023-03-20T05:42:29.613Z,9.20
2023-03-20T05:44:56.210Z,9.40
2023-03-20T05:47:25.958Z,9.60
2023-03-20T05:49:52.714Z,9.70
2023-03-20T05:52:19.296Z,9.80
2023-03-20T05:54:45.921Z,9.90
2023-03-20T05:57:12.474Z,10.00
2023-03-20T05:59:39.392Z,10.00
2023-03-20T06:02:05.946Z,10.10
2023-03-20T06:04:32.531Z,10.20
2023-03-20T06:06:59.102Z,10.20
2023-03-20T06:09:27.536Z,10.20
2023-03-20T06:11:54.095Z,10.20
2023-03-20T06:14:20.667Z,10.50
2023-03-20T06:16:47.259Z,10.60
2023-03-20T06:19:13.856Z,10.60
2023-03-20T06:21:40.414Z,10.70
2023-03-20T06:24:07.035Z,10.70
2023-03-20T06:26:33.561Z,10.70
2023-03-20T06:29:00.131Z,10.80
2023-03-20T06:31:26.726Z,10.50
2023-03-20T06:33:53.282Z,10.70
2023-03-20T06:36:19.817Z,10.60
2023-03-20T06:38:46.457Z,11.00
2023-03-20T06:41:18.899Z,11.10
2023-03-20T06:43:54.487Z,11.20
2023-03-20T06:46:21.240Z,11.20
2023-03-20T06:48:47.838Z,11.40
2023-03-20T06:51:14.413Z,11.50
2023-03-20T06:53:40.993Z,11.70
2023-03-20T06:56:07.566Z,11.70
2023-03-20T06:58:34.165Z,11.90
2023-03-20T07:01:00.729Z,12.00
2023-03-20T07:03:27.397Z,12.10
2023-03-20T07:05:53.993Z,12.10
2023-03-20T07:08:20.554Z,12.10
2023-03-20T07:10:47.107Z,12.20
2023-03-20T07:13:13.674Z,12.40
2023-03-20T07:15:43.857Z,12.40
2023-03-20T07:18:17.346Z,12.30
2023-03-20T07:20:43.919Z,12.50
2023-03-20T07:23:10.552Z,12.60
2023-03-20T07:25:42.917Z,12.60
2023-03-20T07:28:09.978Z,12.70
2023-03-20T07:30:36.528Z,12.70
2023-03-20T07:33:03.126Z,12.80
2023-03-20T07:35:29.744Z,12.80
2023-03-20T07:37:58.142Z,13.10
2023-03-20T07:40:24.914Z,13.20
2023-03-20T07:42:51.489Z,13.40
2023-03-20T07:45:18.055Z,13.20
2023-03-20T07:47:44.647Z,13.30
2023-03-20T07:50:11.245Z,13.40
2023-03-20T07:52:37.897Z,13.60
2023-03-20T07:55:04.470Z,13.70
2023-03-20T07:57:31.060Z,13.80
2023-03-20T07:59:57.643Z,14.10
2023-03-20T08:02:24.218Z,14.00
2023-03-20T08:04:50.775Z,13.90
2023-03-20T08:07:17.500Z,13.50
2023-03-20T08:09:44.161Z,13.50
2023-03-20T08:12:10.723Z,13.70
2023-03-20T08:14:37.353Z,13.50
2023-03-20T08:17:14.582Z,12.70
2023-03-20T08:19:41.797Z,13.10
2023-03-20T08:22:08.419Z,13.80
2023-03-20T08:24:34.960Z,14.00
2023-03-20T08:27:01.536Z,14.30
2023-03-20T08:29:28.071Z,14.60
2023-03-20T08:31:54.668Z,14.60
2023-03-20T08:34:23.885Z,14.70
2023-03-20T08:36:50.727Z,15.00
2023-03-20T08:39:17.277Z,15.20
2023-03-20T08:41:43.849Z,15.20
2023-03-20T08:44:10.395Z,15.30
2023-03-20T08:46:37.091Z,15.60
2023-03-20T08:49:03.764Z,15.60
2023-03-20T08:51:30.379Z,15.70
2023-03-20T08:53:57.100Z,16.00
2023-03-20T08:56:23.686Z,16.10
2023-03-20T08:58:50.278Z,16.20
2023-03-20T09:01:16.986Z,16.50
2023-03-20T09:03:43.615Z,16.80
2023-03-20T09:06:10.167Z,16.50
2023-03-20T09:08:36.805Z,16.50
2023-03-20T09:11:03.347Z,16.60
2023-03-20T09:13:29.894Z,16.90
2023-03-20T09:15:56.522Z,16.60
2023-03-20T09:18:23.193Z,17.10
2023-03-20T09:20:49.768Z,17.50
2023-03-20T09:23:16.373Z,17.80
2023-03-20T09:25:42.998Z,17.50
2023-03-20T09:28:09.591Z,17.40
2023-03-20T09:30:36.491Z,17.70
2023-03-20T09:33:03.255Z,17.70
2023-03-20T09:35:29.918Z,17.30
2023-03-20T09:37:56.462Z,17.70
2023-03-20T09:40:23.024Z,18.00
2023-03-20T09:42:49.655Z,17.90
2023-03-20T09:45:16.244Z,18.20
2023-03-20T09:47:42.838Z,18.50
2023-03-20T09:50:09.432Z,18.30
2023-03-20T09:52:35.978Z,18.40
2023-03-20T09:55:02.577Z,18.10
2023-03-20T09:57:29.157Z,18.10
2023-03-20T09:59:55.715Z,18.50
2023-03-20T10:02:22.375Z,18.40
2023-03-20T10:04:48.976Z,18.50
2023-03-20T10:07:15.606Z,18.60
2023-03-20T10:09:42.228Z,18.20
2023-03-20T10:12:08.805Z,18.00
2023-03-20T10:14:35.357Z,18.20
2023-03-20T10:17:01.892Z,18.20
2023-03-20T10:19:28.451Z,18.00
2023-03-20T10:21:55.052Z,18.10
2023-03-20T10:24:21.626Z,18.20
2023-03-20T10:26:48.181Z,18.40
2023-03-20T10:29:14.727Z,17.80
2023-03-20T10:31:41.368Z,17.20
2023-03-20T10:34:08.008Z,17.60
2023-03-20T10:36:34.584Z,17.90
2023-03-20T10:39:01.177Z,17.90
2023-03-20T10:41:27.789Z,18.20
2023-03-20T10:43:54.397Z,18.10
2023-03-20T10:46:21.020Z,18.20
2023-03-20T10:48:47.603Z,17.80
2023-03-20T10:51:14.170Z,17.40
2023-03-20T10:53:40.838Z,17.70
2023-03-20T10:56:07.414Z,17.80
2023-03-20T10:58:33.993Z,17.60
2023-03-20T11:01:00.600Z,17.50
2023-03-20T11:03:27.221Z,17.90
2023-03-20T11:06:08.573Z,17.80
2023-03-20T11:08:36.155Z,18.00
2023-03-20T11:11:02.753Z,17.80
2023-03-20T11:13:29.329Z,18.20
2023-03-20T11:15:55.889Z,18.30
2023-03-20T11:18:22.473Z,17.80
2023-03-20T11:20:49.024Z,18.00
2023-03-20T11:23:15.606Z,18.30
2023-03-20T11:25:42.158Z,18.20
2023-03-20T11:28:08.810Z,18.10
2023-03-20T11:30:35.640Z,17.90
2023-03-20T11:33:02.427Z,18.10
2023-03-20T11:35:28.992Z,17.90
2023-03-20T11:37:55.594Z,17.80
2023-03-20T11:40:22.156Z,17.90
2023-03-20T11:42:48.718Z,17.70
2023-03-20T11:45:15.295Z,18.00
2023-03-20T11:47:41.852Z,18.10
2023-03-20T11:50:08.405Z,18.20
2023-03-20T11:52:34.979Z,18.40
2023-03-20T11:55:01.530Z,18.30
2023-03-20T11:57:28.111Z,18.50
2023-03-20T11:59:54.665Z,18.60
2023-03-20T12:02:21.257Z,18.30
2023-03-20T12:04:47.925Z,18.30
2023-03-20T12:07:14.494Z,18.30
2023-03-20T12:09:41.063Z,18.20
2023-03-20T12:12:07.633Z,18.30
2023-03-20T12:14:34.205Z,18.40
2023-03-20T12:17:00.791Z,18.70
2023-03-20T12:19:27.334Z,19.00
2023-03-20T12:21:53.954Z,18.80
2023-03-20T12:24:20.662Z,18.80
2023-03-20T12:26:47.247Z,18.80
2023-03-20T12:29:13.817Z,18.30
2023-03-20T12:31:40.469Z,18.40
2023-03-20T12:34:07.080Z,18.70
2023-03-20T12:36:33.645Z,18.30
2023-03-20T12:39:00.224Z,18.30
2023-03-20T12:41:26.810Z,18.60
2023-03-20T12:43:53.388Z,18.10
2023-03-20T12:46:20.012Z,18.70
2023-03-20T12:48:46.617Z,18.70
2023-03-20T12:51:13.775Z,19.00
2023-03-20T12:53:40.462Z,19.20
2023-03-20T12:56:07.043Z,19.20
2023-03-20T12:58:33.594Z,18.90
2023-03-20T13:01:00.160Z,19.10
2023-03-20T13:03:27.222Z,18.90
2023-03-20T13:05:53.756Z,19.20
2023-03-20T13:08:20.361Z,19.40
2023-03-20T13:10:46.902Z,19.30
2023-03-20T13:13:13.467Z,18.70
2023-03-20T13:15:40.005Z,18.80
2023-03-20T13:18:06.777Z,19.20
2023-03-20T13:20:33.349Z,18.90
2023-03-20T13:22:59.931Z,19.00
2023-03-20T13:25:26.641Z,19.40
2023-03-20T13:27:53.175Z,19.50
2023-03-20T13:30:19.743Z,19.60
2023-03-20T13:32:46.347Z,19.50
2023-03-20T13:35:12.930Z,19.30
2023-03-20T13:37:39.494Z,19.10
2023-03-20T13:40:06.175Z,19.20
2023-03-20T13:42:32.842Z,19.20
2023-03-20T13:44:59.407Z,19.30
2023-03-20T13:47:26.011Z,19.20
2023-03-20T13:49:52.612Z,19.50
2023-03-20T13:52:19.162Z,19.90
2023-03-20T13:54:45.794Z,19.80
2023-03-20T13:57:12.478Z,19.50
2023-03-20T13:59:39.041Z,19.60
2023-03-20T14:02:05.598Z,19.40
2023-03-20T14:04:32.188Z,19.40
2023-03-20T14:06:58.759Z,19.50
2023-03-20T14:09:25.365Z,19.60
2023-03-20T14:11:52.009Z,19.60
2023-03-20T14:14:18.607Z,19.60
2023-03-20T14:16:45.183Z,20.00
2023-03-20T14:19:13.323Z,20.10
2023-03-20T14:21:39.960Z,20.00
2023-03-20T14:24:06.539Z,19.70
2023-03-20T14:26:33.093Z,19.70
2023-03-20T14:28:59.813Z,19.80
2023-03-20T14:31:26.371Z,19.90
2023-03-20T14:33:53.114Z,19.80
2023-03-20T14:36:19.690Z,19.90
2023-03-20T14:38:49.199Z,20.30
2023-03-20T14:41:17.916Z,20.50
2023-03-20T14:43:44.486Z,20.60
2023-03-20T14:46:11.020Z,20.70
2023-03-20T14:48:37.585Z,20.30
2023-03-20T14:51:04.189Z,20.10
2023-03-20T14:53:30.752Z,20.00
2023-03-20T14:55:57.346Z,20.30
2023-03-20T14:58:23.957Z,19.90
2023-03-20T15:00:50.526Z,20.20
2023-03-20T15:03:17.080Z,19.60
2023-03-20T15:05:43.671Z,19.40
2023-03-20T15:08:10.227Z,19.60
2023-03-20T15:10:36.893Z,19.90
2023-03-20T15:13:03.561Z,20.30
2023-03-20T15:15:30.141Z,20.40
2023-03-20T15:17:56.678Z,20.00
2023-03-20T15:20:23.245Z,19.50
2023-03-20T15:22:49.852Z,19.90
2023-03-20T15:25:16.479Z,19.20
2023-03-20T15:27:43.027Z,19.50
2023-03-20T15:30:09.634Z,19.60
2023-03-20T15:32:36.313Z,19.70
2023-03-20T15:35:02.908Z,19.20
2023-03-20T15:37:29.530Z,19.50
2023-03-20T15:39:56.050Z,19.80
2023-03-20T15:42:22.658Z,20.00
2023-03-20T15:44:49.246Z,20.10
2023-03-20T15:47:15.852Z,20.20
2023-03-20T15:49:42.417Z,20.50
2023-03-20T15:52:09.020Z,20.60
2023-03-20T15:54:35.598Z,20.60
2023-03-20T15:57:02.175Z,20.60
2023-03-20T15:59:28.818Z,20.30
2023-03-20T16:01:55.417Z,19.90
2023-03-20T16:04:22.021Z,19.40
2023-03-20T16:06:48.588Z,19.70
2023-03-20T16:09:15.139Z,19.70
2023-03-20T16:11:42.326Z,19.90
2023-03-20T16:14:08.896Z,20.00
2023-03-20T16:16:35.466Z,20.10
2023-03-20T16:19:02.039Z,20.00
2023-03-20T16:21:28.649Z,19.90
2023-03-20T16:23:55.511Z,19.30
2023-03-20T16:26:22.123Z,19.20
2023-03-20T16:28:48.741Z,19.30
2023-03-20T16:31:15.398Z,19.00
2023-03-20T16:33:41.965Z,18.70
2023-03-20T16:36:08.589Z,18.60
2023-03-20T16:38:35.132Z,18.80
2023-03-20T16:41:01.723Z,18.80
2023-03-20T16:43:28.276Z,18.60
2023-03-20T16:45:54.850Z,18.70
2023-03-20T16:48:21.413Z,18.70
2023-03-20T16:50:47.998Z,18.80
2023-03-20T16:53:14.625Z,18.70
2023-03-20T16:55:41.195Z,18.70
2023-03-20T16:58:07.729Z,18.20
2023-03-20T17:00:34.336Z,18.10
2023-03-20T17:03:01.099Z,18.00
2023-03-20T17:05:27.718Z,18.10
2023-03-20T17:07:54.277Z,17.80
2023-03-20T17:10:20.815Z,17.60
2023-03-20T17:12:47.432Z,17.80
2023-03-20T17:15:14.030Z,17.90
2023-03-20T17:17:40.587Z,17.90
2023-03-20T17:20:07.171Z,17.90
2023-03-20T17:22:33.749Z,17.80
2023-03-20T17:25:00.339Z,17.70
2023-03-20T17:27:26.931Z,17.70
2023-03-20T17:29:53.515Z,17.70
2023-03-20T17:32:20.140Z,17.60
2023-03-20T17:34:46.780Z,17.60
2023-03-20T17:37:13.377Z,17.50
2023-03-20T17:39:39.944Z,17.40
2023-03-20T17:42:06.487Z,17.20
2023-03-20T17:44:33.161Z,17.30
2023-03-20T17:46:59.824Z,17.30
2023-03-20T17:49:26.442Z,17.30
2023-03-20T17:51:53.004Z,17.20
2023-03-20T17:54:19.582Z,17.10
2023-03-20T17:56:46.150Z,17.10
2023-03-20T17:59:12.793Z,17.20
2023-03-20T18:01:39.360Z,17.10
2023-03-20T18:04:06.044Z,16.40
2023-03-20T18:06:32.652Z,16.70
2023-03-20T18:08:59.236Z,16.70
2023-03-20T18:11:25.812Z,16.60
2023-03-20T18:13:52.394Z,16.60
2023-03-20T18:16:19.060Z,16.40
2023-03-20T18:18:45.640Z,16.40
2023-03-20T18:21:12.321Z,16.00
2023-03-20T18:23:38.875Z,16.00
2023-03-20T18:26:05.441Z,15.80
2023-03-20T18:28:32.008Z,15.70
2023-03-20T18:30:58.661Z,15.80
2023-03-20T18:33:25.383Z,15.80
2023-03-20T18:35:52.027Z,15.30
2023-03-20T18:38:18.644Z,15.30
2023-03-20T18:40:45.238Z,15.30
2023-03-20T18:43:11.827Z,15.30
2023-03-20T18:45:38.400Z,15.50
2023-03-20T18:48:04.963Z,15.70
2023-03-20T18:50:31.525Z,15.70
2023-03-20T18:52:58.109Z,15.50
2023-03-20T18:55:24.677Z,15.70
2023-03-20T18:57:51.318Z,15.70
2023-03-20T19:00:17.911Z,15.70
2023-03-20T19:02:44.613Z,15.80
2023-03-20T19:05:11.203Z,15.80
2023-03-20T19:07:37.750Z,15.40
2023-03-20T19:10:04.313Z,15.40
2023-03-20T19:12:30.879Z,15.40
2023-03-20T19:14:57.424Z,15.20
2023-03-20T19:17:23.982Z,14.70
2023-03-20T19:19:50.544Z,14.90
2023-03-20T19:22:28.946Z,15.20
2023-03-20T19:24:56.280Z,15.30
2023-03-20T19:27:22.864Z,15.40
2023-03-20T19:29:49.467Z,15.50
2023-03-20T19:32:16.046Z,15.50
2023-03-20T19:37:29.208Z,15.20
2023-03-20T19:39:55.960Z,15.30
2023-03-20T19:42:50.851Z,15.10
2023-03-20T19:45:09.086Z,14.90
2023-03-20T19:47:35.728Z,14.80
2023-03-20T19:50:02.317Z,14.80
2023-03-20T19:52:28.968Z,14.90
2023-03-20T19:55:02.637Z,14.80
2023-03-20T19:57:30.175Z,14.80
2023-03-20T20:00:39.610Z,14.80
2023-03-20T20:02:43.382Z,14.70
2023-03-20T20:05:10.136Z,14.80
2023-03-20T20:08:09.205Z,14.60
2023-03-20T20:10:23.278Z,14.60
2023-03-20T20:12:49.857Z,14.40
2023-03-20T20:15:16.411Z,14.20
2023-03-20T20:17:42.982Z,13.80
2023-03-20T20:20:09.688Z,13.90
2023-03-20T20:22:36.335Z,14.00
2023-03-20T20:25:02.912Z,14.10
2023-03-20T20:27:29.468Z,14.00
2023-03-20T20:29:56.055Z,14.00
2023-03-20T20:32:23.472Z,14.00
2023-03-20T20:35:34.902Z,13.80
2023-03-20T20:38:21.217Z,13.60
2023-03-20T20:40:23.616Z,13.50
2023-03-20T20:42:50.177Z,12.90
2023-03-20T20:45:16.759Z,13.00
2023-03-20T20:47:43.323Z,12.70
2023-03-20T20:50:09.929Z,12.60
2023-03-20T20:52:36.499Z,12.10
2023-03-20T20:55:18.856Z,12.30
2023-03-20T20:57:48.525Z,12.50
2023-03-20T21:00:15.115Z,12.60
2023-03-20T21:02:41.698Z,12.30
2023-03-20T21:05:08.300Z,12.00
2023-03-20T21:07:34.874Z,12.00
2023-03-20T21:10:01.459Z,12.00
2023-03-20T21:12:38.134Z,12.00
2023-03-20T21:15:09.103Z,12.00
2023-03-20T21:17:35.705Z,12.00
2023-03-20T21:20:02.268Z,11.90
2023-03-20T21:22:28.848Z,11.70
2023-03-20T21:25:07.248Z,11.90
2023-03-20T21:27:40.262Z,11.80
2023-03-20T21:30:06.865Z,11.50
2023-03-20T21:32:33.424Z,11.60
2023-03-20T21:35:00.167Z,11.90
2023-03-20T21:40:13.278Z,11.30
2023-03-20T21:42:39.885Z,11.40
2023-03-20T21:46:13.508Z,11.20
2023-03-20T21:51:09.678Z,11.30
2023-03-20T21:54:26.078Z,11.30
2023-03-20T21:56:50.578Z,11.40
2023-03-20T22:02:05.840Z,11.50
2023-03-20T22:05:21.883Z,11.20
2023-03-20T22:07:52.053Z,11.10
2023-03-20T22:10:53.367Z,11.30
2023-03-20T22:19:17.706Z,10.80
2023-03-20T22:24:54.864Z,10.80
2023-03-20T22:32:59.527Z,10.60
2023-03-20T22:35:51.785Z,10.60
2023-03-20T22:38:41.333Z,10.90
2023-03-20T22:41:37.911Z,10.90
2023-03-20T22:46:41.824Z,10.40
2023-03-20T22:48:56.785Z,10.50
2023-03-20T22:51:32.508Z,10.70
2023-03-20T22:54:02.057Z,10.60
2023-03-20T22:56:28.691Z,10.40
2023-03-20T22:58:55.247Z,10.30
2023-03-20T23:01:21.816Z,10.40
2023-03-20T23:03:48.422Z,10.20
2023-03-20T23:06:15.008Z,10.20
2023-03-20T23:08:48.960Z,10.20
2023-03-20T23:11:17.123Z,10.20
2023-03-20T23:13:43.728Z,10.20
2023-03-20T23:16:10.411Z,10.40
2023-03-20T23:18:37.072Z,10.40
2023-03-20T23:21:03.648Z,10.30
2023-03-20T23:23:30.283Z,10.20
2023-03-20T23:25:56.904Z,10.10
2023-03-20T23:28:23.693Z,10.00
2023-03-20T23:31:03.449Z,9.90
2023-03-20T23:33:36.305Z,9.80
2023-03-20T23:36:16.217Z,10.00
2023-03-20T23:38:45.483Z,10.10
2023-03-20T23:41:12.097Z,9.50
2023-03-20T23:43:38.745Z,8.90
2023-03-20T23:46:05.377Z,9.20
2023-03-20T23:48:32.018Z,8.70
2023-03-20T23:50:58.669Z,9.00
2023-03-20T23:53:25.230Z,9.10
2023-03-20T23:55:51.931Z,9.40
2023-03-20T23:58:18.516Z,9.70
